Time;durP1;ratioP1;P1;durP2;ratioP2;P2;SDS_P1;SDS_P2;PMS_P1;PMS_P2;Temp;Humidity;BMP_temperature;BMP_pressure;BME280_temperature;BME280_humidity;BME280_pressure;Samples;Min_cycle;Max_cycle;Signal;HPM_P1;HPM_P2
2022/05/10 00:01:54;;;;;;;;;9.00;6.67;;;;;22.68;34.26;101970.85;110304;1264;18469;-47
2022/05/10 00:04:21;;;;;;;;;9.33;9.00;;;;;22.67;34.34;101969.62;110268;1264;18712;-51
2022/05/10 00:06:49;;;;;;;;;10.67;9.67;;;;;22.69;34.26;101973.31;110239;1264;19712;-49
2022/05/10 00:09:16;;;;;;;;;7.00;7.00;;;;;22.66;34.14;101969.55;110302;1264;18634;-49
2022/05/10 00:11:43;;;;;;;;;6.00;6.00;;;;;22.65;34.14;101968.12;110303;1264;20403;-50
2022/05/10 00:14:10;;;;;;;;;8.50;7.50;;;;;22.67;34.16;101967.26;110322;1264;19489;-47
2022/05/10 00:16:38;;;;;;;;;7.00;6.33;;;;;22.67;34.44;101962.92;110292;1264;18418;-49
2022/05/10 00:19:05;;;;;;;;;10.00;9.00;;;;;22.67;34.27;101958.71;110295;1264;18842;-49
2022/05/10 00:21:32;;;;;;;;;7.33;6.00;;;;;22.65;34.28;101956.27;110272;1264;22242;-48
2022/05/10 00:23:59;;;;;;;;;9.00;6.67;;;;;22.65;34.08;101954.27;110321;1263;18842;-48
2022/05/10 00:26:27;;;;;;;;;10.00;9.00;;;;;22.65;34.20;101952.08;110277;1263;18583;-50
2022/05/10 00:28:54;;;;;;;;;9.00;7.33;;;;;22.66;34.21;101952.63;110277;1264;22317;-49
2022/05/10 00:31:21;;;;;;;;;7.00;7.00;;;;;22.67;34.30;101954.89;110261;1264;18789;-47
2022/05/10 00:33:48;;;;;;;;;9.00;9.00;;;;;22.66;34.18;101951.13;110288;1264;18917;-50
2022/05/10 00:36:16;;;;;;;;;10.33;8.33;;;;;22.66;34.24;101953.66;110282;1263;19501;-50
2022/05/10 00:38:43;;;;;;;;;7.00;7.00;;;;;22.67;34.03;101944.48;110266;1264;18491;-48
2022/05/10 00:41:10;;;;;;;;;7.00;7.00;;;;;22.66;34.20;101938.39;110328;1264;18766;-48
2022/05/10 00:43:37;;;;;;;;;7.00;7.00;;;;;22.66;34.28;101944.54;110318;1262;19667;-51
2022/05/10 00:46:05;;;;;;;;;8.00;7.00;;;;;22.66;34.14;101937.81;110278;1264;18450;-49
2022/05/10 00:48:32;;;;;;;;;10.50;9.00;;;;;22.66;34.29;101936.73;110282;1264;18775;-49
2022/05/10 00:50:59;;;;;;;;;9.00;7.33;;;;;22.65;34.28;101933.92;110251;1264;21134;-50
2022/05/10 00:53:26;;;;;;;;;12.00;10.00;;;;;22.65;34.44;101929.93;110221;1264;18715;-49
2022/05/10 00:55:54;;;;;;;;;6.33;6.33;;;;;22.64;34.27;101931.02;110282;1263;19001;-49
2022/05/10 00:58:21;;;;;;;;;6.33;6.00;;;;;22.64;34.32;101923.61;110284;1262;19772;-46
2022/05/10 01:00:49;;;;;;;;;10.00;9.00;;;;;22.65;34.34;101919.91;110285;1262;18511;-47
2022/05/10 01:03:16;;;;;;;;;7.67;7.00;;;;;22.64;34.41;101917.73;110240;1264;22151;-47
2022/05/10 01:05:43;;;;;;;;;9.00;7.00;;;;;22.65;34.33;101916.03;110269;1264;19683;-49
2022/05/10 01:08:10;;;;;;;;;10.00;10.00;;;;;22.64;34.26;101921.24;110346;1262;18600;-49
2022/05/10 01:10:37;;;;;;;;;6.50;6.00;;;;;22.64;34.37;101915.60;110293;1263;20236;-50
2022/05/10 01:13:05;;;;;;;;;10.33;9.00;;;;;22.63;34.29;101912.77;110313;1264;19622;-48
2022/05/10 01:15:32;;;;;;;;;7.00;7.00;;;;;22.63;34.15;101911.91;110282;1263;18564;-48
2022/05/10 01:17:59;;;;;;;;;10.00;9.00;;;;;22.62;34.05;101909.25;110311;1264;18744;-47
2022/05/10 01:20:26;;;;;;;;;10.00;9.00;;;;;22.62;34.15;101913.31;110298;1264;19811;-49
2022/05/10 01:22:54;;;;;;;;;7.00;7.00;;;;;22.62;34.27;101911.64;110337;1264;18802;-48
2022/05/10 01:25:21;;;;;;;;;9.00;7.00;;;;;22.61;34.20;101912.97;110268;1262;18924;-48
2022/05/10 01:27:49;;;;;;;;;8.33;7.00;;;;;22.62;34.13;101909.26;110250;1263;19898;-49
2022/05/10 01:30:16;;;;;;;;;9.67;9.00;;;;;22.61;34.10;101904.67;110284;1263;19288;-48
2022/05/10 01:35:28;;;;;;;;;9.00;8.00;;;;;22.61;34.22;101902.14;110282;1263;19567;-50
2022/05/10 01:37:55;;;;;;;;;10.67;9.67;;;;;22.61;34.31;101899.55;110313;1264;18537;-48
2022/05/10 01:40:23;;;;;;;;;9.00;7.00;;;;;22.60;34.23;101899.99;110246;1262;22406;-49
2022/05/10 01:42:50;;;;;;;;;8.67;7.00;;;;;22.60;34.15;101897.05;110301;1263;19644;-44
2022/05/10 01:45:18;;;;;;;;;7.00;7.00;;;;;22.61;34.11;101896.81;110288;1264;18716;-48
2022/05/10 01:47:45;;;;;;;;;13.00;10.00;;;;;22.62;34.23;101897.25;110314;1264;18919;-47
2022/05/10 01:50:12;;;;;;;;;10.00;9.00;;;;;22.62;34.14;101899.76;110300;1263;19660;-51
2022/05/10 01:52:39;;;;;;;;;9.00;7.33;;;;;22.63;34.37;101896.27;110295;1264;21840;-49
2022/05/10 01:55:06;;;;;;;;;9.00;9.00;;;;;22.63;34.17;101891.31;110269;1264;19448;-50
2022/05/10 01:57:34;;;;;;;;;8.00;8.00;;;;;22.62;34.25;101886.27;110246;1262;19793;-45
2022/05/10 02:00:01;;;;;;;;;10.00;9.00;;;;;22.62;34.24;101878.06;110290;1264;18677;-48
2022/05/10 02:02:28;;;;;;;;;9.00;9.00;;;;;22.62;34.21;101878.85;110277;1262;18783;-48
2022/05/10 02:04:55;;;;;;;;;13.00;10.00;;;;;22.63;34.15;101874.34;110326;1264;21057;-49
2022/05/10 02:07:23;;;;;;;;;9.67;9.00;;;;;22.62;34.25;101872.16;110210;1263;18634;-49
2022/05/10 02:09:50;;;;;;;;;10.00;7.33;;;;;22.61;34.19;101870.79;110293;1263;19057;-49
2022/05/10 02:12:17;;;;;;;;;10.00;10.00;;;;;22.60;34.03;101869.52;110254;1262;19489;-49
2022/05/10 02:14:44;;;;;;;;;9.67;9.67;;;;;22.60;34.16;101869.17;110142;1264;21583;-48
2022/05/10 02:17:12;;;;;;;;;6.33;6.00;;;;;22.60;34.21;101861.95;110299;1264;22339;-48
2022/05/10 02:19:39;;;;;;;;;9.00;8.67;;;;;22.60;34.21;101862.66;110291;1262;19668;-51
2022/05/10 02:22:06;;;;;;;;;9.00;9.00;;;;;22.60;34.20;101863.03;110307;1262;18520;-46
2022/05/10 02:24:33;;;;;;;;;9.00;7.00;;;;;22.60;34.29;101856.72;110291;1263;22173;-49
2022/05/10 02:27:00;;;;;;;;;9.00;9.00;;;;;22.60;34.23;101857.98;110196;1264;20016;-49
2022/05/10 02:29:28;;;;;;;;;13.33;12.00;;;;;22.60;34.17;101856.15;110248;1264;18767;-48
2022/05/10 02:34:40;;;;;;;;;9.00;8.33;;;;;22.60;34.22;101857.94;110273;1264;19886;-48
2022/05/10 02:37:07;;;;;;;;;9.00;9.00;;;;;22.59;34.07;101857.48;110295;1264;18691;-48
2022/05/10 02:39:35;;;;;;;;;10.33;9.33;;;;;22.59;34.04;101855.64;110210;1262;21566;-48
2022/05/10 02:42:02;;;;;;;;;10.00;9.50;;;;;22.59;34.19;101850.38;110252;1264;19714;-45
2022/05/10 02:44:29;;;;;;;;;10.00;9.33;;;;;22.59;34.05;101850.95;110239;1263;19354;-46
2022/05/10 02:46:57;;;;;;;;;8.67;8.67;;;;;22.59;34.10;101842.95;110220;1264;18925;-46
2022/05/10 02:49:24;;;;;;;;;10.00;9.00;;;;;22.60;34.05;101845.23;110223;1263;19651;-47
2022/05/10 02:51:51;;;;;;;;;10.50;9.50;;;;;22.59;34.12;101834.36;110296;1264;18387;-47
2022/05/10 02:54:18;;;;;;;;;10.00;9.00;;;;;22.59;34.09;101834.92;110292;1264;18783;-47
2022/05/10 02:56:46;;;;;;;;;9.00;9.00;;;;;22.59;34.13;101838.17;110301;1262;19684;-49
2022/05/10 02:59:13;;;;;;;;;11.00;10.50;;;;;22.59;34.09;101842.86;110330;1264;18792;-49
2022/05/10 03:01:40;;;;;;;;;7.00;7.00;;;;;22.59;34.00;101841.98;110316;1264;18994;-49
2022/05/10 03:04:07;;;;;;;;;10.00;9.00;;;;;22.59;34.05;101838.39;110301;1263;21020;-47
2022/05/10 03:06:36;;;;;;;;;10.00;10.00;;;;;22.58;34.01;101838.42;110315;1264;21995;-50
2022/05/10 03:09:03;;;;;;;;;9.33;8.67;;;;;22.58;34.15;101837.38;110274;1264;22335;-49
2022/05/10 03:11:30;;;;;;;;;10.67;9.67;;;;;22.58;34.00;101837.15;110282;1264;19753;-48
2022/05/10 03:13:58;;;;;;;;;9.00;9.00;;;;;22.58;33.87;101838.48;110315;1264;18617;-48
2022/05/10 03:16:26;;;;;;;;;10.50;9.00;;;;;22.58;33.91;101835.56;110262;1262;22126;-49
2022/05/10 03:18:53;;;;;;;;;10.67;9.67;;;;;22.57;34.03;101833.41;110279;1263;19601;-49
2022/05/10 03:21:20;;;;;;;;;10.67;9.00;;;;;22.59;33.86;101834.73;110264;1262;18780;-47
2022/05/10 03:23:48;;;;;;;;;11.33;9.67;;;;;22.58;33.90;101834.94;110301;1264;18829;-49
2022/05/10 03:26:15;;;;;;;;;11.33;10.33;;;;;22.59;34.06;101833.04;110305;1264;19556;-48
2022/05/10 03:28:42;;;;;;;;;10.00;9.00;;;;;22.59;34.11;101834.53;110198;1263;18776;-49
2022/05/10 03:31:09;;;;;;;;;10.00;10.00;;;;;22.59;34.07;101832.73;110277;1263;18837;-49
2022/05/10 03:33:37;;;;;;;;;9.50;9.50;;;;;22.58;34.03;101830.05;110223;1264;20502;-49
2022/05/10 03:36:04;;;;;;;;;11.00;10.00;;;;;22.59;34.03;101829.44;110280;1262;20738;-45
2022/05/10 03:38:32;;;;;;;;;10.00;10.00;;;;;22.58;33.90;101832.58;110289;1264;18844;-48
2022/05/10 03:41:00;;;;;;;;;11.00;10.00;;;;;22.58;33.95;101833.15;110342;1264;19365;-49
2022/05/10 03:43:27;;;;;;;;;9.00;9.00;;;;;22.59;33.97;101831.27;110303;1262;19212;-48
2022/05/10 03:45:58;;;;;;;;;11.00;10.00;;;;;22.59;33.99;101833.66;110271;1262;18731;-49
2022/05/10 03:48:25;;;;;;;;;10.33;10.00;;;;;22.58;33.85;101830.42;110215;1262;22449;-47
2022/05/10 03:50:53;;;;;;;;;10.50;9.50;;;;;22.59;33.95;101832.74;110263;1263;19328;-48
2022/05/10 03:53:20;;;;;;;;;12.00;10.33;;;;;22.58;33.89;101833.52;110270;1264;23035;-47
2022/05/10 03:55:47;;;;;;;;;10.33;9.67;;;;;22.59;34.08;101829.06;110289;1264;20685;-47
2022/05/10 03:58:14;;;;;;;;;9.00;9.00;;;;;22.58;34.02;101834.45;110287;1264;18909;-48
2022/05/10 04:00:41;;;;;;;;;12.50;10.50;;;;;22.58;33.93;101830.25;110241;1265;18767;-49
2022/05/10 04:03:09;;;;;;;;;10.00;9.50;;;;;22.58;33.98;101829.70;110223;1264;23173;-49
2022/05/10 04:05:36;;;;;;;;;13.00;11.00;;;;;22.58;33.99;101830.59;110277;1264;18699;-48
2022/05/10 04:08:04;;;;;;;;;10.00;9.00;;;;;22.58;34.05;101827.86;110328;1265;19573;-49
2022/05/10 04:10:31;;;;;;;;;9.00;9.00;;;;;22.59;34.00;101827.42;110248;1264;22026;-50
2022/05/10 04:12:58;;;;;;;;;13.00;10.33;;;;;22.59;33.94;101821.75;110317;1264;19010;-51
2022/05/10 04:15:25;;;;;;;;;8.00;8.00;;;;;22.59;34.02;101821.81;110259;1262;18958;-48
2022/05/10 04:17:53;;;;;;;;;9.00;9.00;;;;;22.59;34.13;101814.91;110276;1264;19525;-48
2022/05/10 04:20:20;;;;;;;;;9.50;9.00;;;;;22.59;33.88;101816.31;110343;1262;18451;-50
2022/05/10 04:22:47;;;;;;;;;9.00;9.00;;;;;22.58;33.91;101817.65;110303;1263;22360;-48
2022/05/10 04:25:16;;;;;;;;;9.67;9.67;;;;;22.59;33.87;101819.73;110270;1264;34187;-50
2022/05/10 04:27:44;;;;;;;;;10.00;9.33;;;;;22.59;34.04;101817.91;110303;1262;22374;-48
2022/05/10 04:30:11;;;;;;;;;10.00;10.00;;;;;22.60;33.90;101818.04;110280;1264;18812;-51
2022/05/10 04:32:38;;;;;;;;;11.00;10.00;;;;;22.60;33.98;101815.52;110273;1264;20172;-48
2022/05/10 04:35:05;;;;;;;;;11.00;10.67;;;;;22.60;33.88;101818.73;110328;1263;18733;-51
2022/05/10 04:37:33;;;;;;;;;10.67;10.00;;;;;22.61;33.98;101813.61;110277;1264;20480;-48
2022/05/10 04:42:45;;;;;;;;;9.67;9.67;;;;;22.61;33.89;101814.98;110344;1261;18702;-50
2022/05/10 04:45:12;;;;;;;;;11.33;10.00;;;;;22.62;33.89;101814.94;110266;1263;22013;-51
2022/05/10 04:47:39;;;;;;;;;11.00;10.00;;;;;22.61;33.83;101815.20;110288;1264;19573;-52
2022/05/10 04:50:07;;;;;;;;;11.00;10.00;;;;;22.61;33.99;101816.48;110297;1264;19305;-49
2022/05/10 04:52:34;;;;;;;;;13.00;9.33;;;;;22.61;33.66;101815.59;110246;1264;20379;-47
2022/05/10 04:55:01;;;;;;;;;11.67;9.67;;;;;22.61;33.71;101818.42;110287;1262;21901;-53
2022/05/10 04:57:29;;;;;;;;;13.50;11.00;;;;;22.62;33.87;101820.95;110287;1262;20133;-50
2022/05/10 04:59:56;;;;;;;;;8.00;8.00;;;;;22.62;33.71;101827.85;110295;1262;19664;-50
2022/05/10 05:02:23;;;;;;;;;12.00;11.00;;;;;22.63;33.94;101829.77;110304;1262;21061;-50
2022/05/10 05:04:50;;;;;;;;;12.50;12.50;;;;;22.63;33.94;101831.84;110335;1262;18623;-53
2022/05/10 05:07:18;;;;;;;;;9.00;9.00;;;;;22.64;34.02;101830.48;110325;1261;18856;-50
2022/05/10 05:09:45;;;;;;;;;8.00;8.00;;;;;22.65;33.81;101828.02;110309;1262;21879;-53
2022/05/10 05:12:12;;;;;;;;;10.67;10.33;;;;;22.65;33.92;101828.42;110311;1262;19053;-51
2022/05/10 05:14:40;;;;;;;;;10.67;9.00;;;;;22.65;34.08;101828.42;110255;1264;22723;-50
2022/05/10 05:17:07;;;;;;;;;9.67;9.00;;;;;22.68;33.97;101839.23;110311;1264;19639;-49
2022/05/10 05:19:34;;;;;;;;;9.33;9.00;;;;;22.72;34.39;101835.92;110221;1263;20178;-51
2022/05/10 05:22:02;;;;;;;;;10.00;10.00;;;;;22.76;34.69;101834.75;110255;1264;19236;-51
2022/05/10 05:24:29;;;;;;;;;11.00;11.00;;;;;22.80;34.78;101832.69;110239;1264;19496;-50
2022/05/10 05:26:57;;;;;;;;;11.00;9.00;;;;;22.83;35.05;101835.64;110151;1262;20146;-50
2022/05/10 05:29:24;;;;;;;;;9.00;9.00;;;;;22.85;35.31;101830.69;110165;1264;18900;-46
2022/05/10 05:31:51;;;;;;;;;9.00;6.00;;;;;22.87;35.93;101831.33;110260;1262;19705;-49
2022/05/10 05:34:18;;;;;;;;;9.00;9.00;;;;;22.91;35.82;101832.55;110240;1262;18430;-48
2022/05/10 05:37:32;;;;;;;;;9.33;7.67;;;;;22.91;35.77;101829.11;110239;1262;18753;-51
2022/05/10 05:39:33;;;;;;;;;9.00;9.00;;;;;22.96;36.04;101828.38;110287;1261;20960;-46
2022/05/10 05:42:00;;;;;;;;;10.00;10.00;;;;;23.00;35.98;101829.78;110208;1264;22407;-48
2022/05/10 05:44:27;;;;;;;;;13.00;10.50;;;;;23.06;36.17;101831.14;110277;1263;18949;-49
2022/05/10 05:46:57;;;;;;;;;10.50;9.50;;;;;23.14;36.39;101833.73;110298;1263;22291;-49
2022/05/10 05:49:26;;;;;;;;;9.33;9.33;;;;;23.18;36.48;101831.16;110249;1264;19934;-49
2022/05/10 05:51:53;;;;;;;;;10.50;10.00;;;;;23.19;36.59;101821.92;110241;1264;21575;-49
2022/05/10 05:54:20;;;;;;;;;11.00;10.00;;;;;23.21;37.24;101825.17;110248;1262;19503;-49
2022/05/10 05:56:47;;;;;;;;;9.00;9.00;;;;;23.24;37.58;101826.16;110283;1264;18901;-48
2022/05/10 05:59:15;;;;;;;;;10.00;10.00;;;;;23.26;37.46;101822.52;110318;1263;22116;-47
2022/05/10 06:01:42;;;;;;;;;9.67;9.67;;;;;23.26;37.39;101826.48;110081;1262;24105;-50
2022/05/10 06:04:09;;;;;;;;;9.50;9.50;;;;;23.27;37.81;101822.70;110218;1263;19492;-50
2022/05/10 06:06:36;;;;;;;;;10.00;9.00;;;;;23.26;37.66;101820.67;110181;1262;18803;-46
2022/05/10 06:09:03;;;;;;;;;10.00;7.67;;;;;23.26;37.61;101813.84;110275;1264;19463;-49
2022/05/10 06:11:31;;;;;;;;;7.00;7.00;;;;;23.26;37.27;101813.89;110264;1264;18759;-50
2022/05/10 06:13:58;;;;;;;;;14.00;11.00;;;;;23.25;37.13;101813.11;110314;1262;19366;-51
2022/05/10 06:16:25;;;;;;;;;7.00;7.00;;;;;23.23;36.85;101812.16;110293;1262;21455;-50
2022/05/10 06:18:52;;;;;;;;;10.00;9.00;;;;;23.23;36.93;101806.94;110267;1262;19179;-46
2022/05/10 06:21:20;;;;;;;;;9.00;9.00;;;;;23.23;36.56;101804.14;110208;1262;18727;-48
2022/05/10 06:23:47;;;;;;;;;10.00;8.33;;;;;23.25;36.69;101798.85;110296;1262;19585;-48
2022/05/10 06:26:14;;;;;;;;;10.00;9.00;;;;;23.29;36.94;101795.30;110330;1261;20344;-49
2022/05/10 06:28:42;;;;;;;;;9.67;7.00;;;;;23.33;36.67;101795.95;110224;1264;18903;-49
2022/05/10 06:31:09;;;;;;;;;7.00;7.00;;;;;23.32;36.42;101792.81;110317;1262;20242;-50
2022/05/10 06:33:37;;;;;;;;;11.00;9.00;;;;;23.34;37.48;101790.93;110273;1264;20252;-49
2022/05/10 06:36:04;;;;;;;;;9.67;7.67;;;;;23.39;38.00;101793.50;110244;1263;18723;-49
2022/05/10 06:38:31;;;;;;;;;9.33;9.00;;;;;23.41;38.02;101785.19;110296;1264;21058;-49
2022/05/10 06:41:00;;;;;;;;;10.00;9.00;;;;;23.42;38.27;101782.50;110305;1264;19161;-49
2022/05/10 06:43:28;;;;;;;;;6.00;6.00;;;;;23.42;38.09;101781.41;110238;1263;20031;-50
2022/05/10 06:45:57;;;;;;;;;6.33;6.00;;;;;23.43;37.77;101779.70;110265;1262;19696;-48
2022/05/10 06:48:25;;;;;;;;;6.00;6.00;;;;;23.42;37.82;101775.77;110230;1264;21898;-46
2022/05/10 06:50:52;;;;;;;;;7.00;6.00;;;;;23.15;36.18;101776.70;110307;1262;18886;-50
2022/05/10 06:53:19;;;;;;;;;9.00;7.00;;;;;22.37;33.98;101777.12;110291;1264;19551;-54
2022/05/10 06:55:47;;;;;;;;;10.00;9.00;;;;;21.93;33.19;101775.77;110270;1262;18771;-51
2022/05/10 06:58:15;;;;;;;;;6.00;6.00;;;;;21.58;32.01;101772.30;110252;1263;18781;-45
2022/05/10 07:00:42;;;;;;;;;5.33;5.33;;;;;21.57;31.46;101770.58;110241;1263;19488;-48
2022/05/10 07:03:09;;;;;;;;;6.67;6.67;;;;;21.30;30.59;101764.44;110234;1263;18520;-48
2022/05/10 07:05:36;;;;;;;;;5.00;5.00;;;;;21.36;30.98;101758.83;110305;1261;18763;-44
2022/05/10 07:08:03;;;;;;;;;6.00;6.00;;;;;21.65;30.82;101750.26;110309;1264;20044;-48
2022/05/10 07:10:31;;;;;;;;;8.00;6.00;;;;;21.65;30.27;101745.49;110282;1264;18480;-49
2022/05/10 07:12:59;;;;;;;;;8.00;8.00;;;;;21.50;30.16;101744.39;110254;1262;18943;-49
2022/05/10 07:15:26;;;;;;;;;8.00;6.00;;;;;21.40;29.81;101747.23;110282;1262;19531;-49
2022/05/10 07:17:53;;;;;;;;;5.00;5.00;;;;;21.32;30.25;101748.77;110207;1262;18415;-51
2022/05/10 07:20:20;;;;;;;;;5.33;5.00;;;;;21.37;29.69;101752.83;110289;1262;19523;-45
2022/05/10 07:22:49;;;;;;;;;6.00;6.00;;;;;21.23;29.10;101750.60;110223;1261;22807;-49
2022/05/10 07:25:16;;;;;;;;;5.00;5.00;;;;;21.08;28.75;101750.61;110230;1261;18409;-48
2022/05/10 07:27:44;;;;;;;;;5.67;5.00;;;;;20.99;28.53;101745.00;110161;1262;18832;-48
2022/05/10 07:30:11;;;;;;;;;5.00;5.00;;;;;20.98;28.29;101742.16;110182;1262;22888;-48
2022/05/10 07:32:38;;;;;;;;;8.00;6.00;;;;;21.31;28.56;101746.12;110248;1264;18506;-49
2022/05/10 07:35:06;;;;;;;;;7.33;6.00;;;;;21.50;27.90;101744.16;110325;1262;19448;-49
2022/05/10 07:37:34;;;;;;;;;5.00;5.00;;;;;21.55;27.94;101739.46;110250;1262;19222;-48
2022/05/10 07:40:01;;;;;;;;;5.00;5.00;;;;;21.54;27.62;101736.52;109981;1262;385659;-48
2022/05/10 07:42:29;;;;;;;;;4.00;4.00;;;;;21.46;27.77;101737.71;110267;1262;21404;-49
2022/05/10 07:44:56;;;;;;;;;6.00;5.50;;;;;21.28;27.79;101738.83;110199;1264;23409;-49
2022/05/10 07:47:24;;;;;;;;;5.00;5.00;;;;;21.14;28.09;101732.23;110167;1262;22322;-50
2022/05/10 07:49:51;;;;;;;;;5.33;5.00;;;;;21.35;27.76;101728.09;110167;1263;18909;-49
2022/05/10 07:52:18;;;;;;;;;4.00;4.00;;;;;21.62;27.59;101728.90;110130;1264;19577;-48
2022/05/10 07:54:45;;;;;;;;;6.67;6.00;;;;;21.63;27.51;101727.73;110096;1262;18829;-47
2022/05/10 07:57:13;;;;;;;;;5.33;5.33;;;;;21.53;27.39;101726.73;110121;1264;21714;-49
2022/05/10 07:59:40;;;;;;;;;5.00;5.00;;;;;21.47;27.38;101722.11;110259;1262;19662;-48
2022/05/10 08:02:07;;;;;;;;;5.00;5.00;;;;;21.59;27.35;101718.83;110215;1261;18489;-49
2022/05/10 08:04:34;;;;;;;;;5.00;5.00;;;;;21.77;27.37;101721.85;110296;1261;22061;-49
2022/05/10 08:07:02;;;;;;;;;6.00;6.00;;;;;21.75;27.54;101717.17;110276;1261;21481;-47
2022/05/10 08:09:30;;;;;;;;;8.00;6.00;;;;;21.91;27.66;101716.86;110229;1262;20138;-50
2022/05/10 08:11:58;;;;;;;;;5.50;5.50;;;;;21.92;27.13;101717.84;110187;1263;18825;-48
2022/05/10 08:14:25;;;;;;;;;8.00;6.00;;;;;21.65;27.43;101719.12;110235;1263;20953;-49
2022/05/10 08:16:52;;;;;;;;;8.00;8.00;;;;;21.56;27.63;101716.70;110179;1262;18888;-49
2022/05/10 08:19:19;;;;;;;;;8.00;6.00;;;;;21.47;27.53;101721.56;110173;1262;27971;-48
2022/05/10 08:21:47;;;;;;;;;7.33;6.00;;;;;21.44;27.62;101712.29;110272;1261;19686;-49
2022/05/10 08:24:14;;;;;;;;;5.50;5.50;;;;;21.81;27.37;101707.35;110276;1262;18559;-51
2022/05/10 08:26:41;;;;;;;;;5.67;5.67;;;;;22.14;27.43;101706.74;110147;1264;18778;-48
2022/05/10 08:29:08;;;;;;;;;5.00;5.00;;;;;22.03;27.07;101703.39;110278;1262;19583;-52
2022/05/10 08:31:36;;;;;;;;;6.00;6.00;;;;;21.86;27.27;101701.99;110234;1262;22429;-50
2022/05/10 08:34:04;;;;;;;;;6.00;5.00;;;;;22.09;27.08;101702.20;110302;1261;18812;-46
2022/05/10 08:36:31;;;;;;;;;5.00;5.00;;;;;22.32;27.09;101699.79;110304;1262;19398;-49
2022/05/10 08:38:58;;;;;;;;;5.00;5.00;;;;;22.39;27.14;101695.91;110267;1264;20597;-48
2022/05/10 08:41:26;;;;;;;;;6.00;6.00;;;;;22.37;27.01;101690.82;110226;1264;18716;-51
2022/05/10 08:43:53;;;;;;;;;7.00;6.00;;;;;22.34;27.00;101687.46;110254;1264;20523;-50
2022/05/10 08:46:20;;;;;;;;;7.00;7.00;;;;;22.15;26.93;101688.77;110238;1263;20003;-48
2022/05/10 08:48:47;;;;;;;;;5.00;5.00;;;;;22.10;27.11;101679.28;110266;1262;18727;-49
2022/05/10 08:51:15;;;;;;;;;9.00;8.00;;;;;22.31;26.91;101675.27;110336;1262;22200;-48
2022/05/10 08:53:43;;;;;;;;;5.00;5.00;;;;;22.50;26.96;101670.08;110222;1263;18442;-48
2022/05/10 08:56:10;;;;;;;;;6.00;6.00;;;;;22.30;26.95;101671.77;110248;1264;18788;-48
2022/05/10 08:58:37;;;;;;;;;8.33;8.00;;;;;21.99;27.03;101662.28;110250;1262;22293;-49
2022/05/10 09:01:04;;;;;;;;;5.50;5.50;;;;;21.87;26.74;101656.41;110233;1264;18468;-48
2022/05/10 09:03:32;;;;;;;;;4.67;4.67;;;;;21.77;26.94;101651.11;110212;1262;18795;-46
2022/05/10 09:05:59;;;;;;;;;5.33;5.33;;;;;22.06;27.05;101647.58;110242;1264;22362;-47
2022/05/10 09:08:26;;;;;;;;;6.00;6.00;;;;;22.25;26.70;101642.40;110278;1262;21559;-50
2022/05/10 09:10:53;;;;;;;;;6.00;6.00;;;;;22.35;26.53;101640.17;110292;1261;18968;-48
2022/05/10 09:13:21;;;;;;;;;5.33;5.33;;;;;22.18;26.56;101642.79;110281;1262;23374;-48
2022/05/10 09:15:48;;;;;;;;;8.67;5.67;;;;;22.07;26.85;101643.20;110275;1261;22798;-49
2022/05/10 09:18:15;;;;;;;;;7.00;6.00;;;;;22.15;26.90;101641.27;110160;1262;18734;-49
2022/05/10 09:20:43;;;;;;;;;6.67;6.00;;;;;22.06;26.67;101643.52;110281;1262;19550;-48
2022/05/10 09:23:10;;;;;;;;;5.33;5.33;;;;;22.09;26.79;101635.42;110313;1263;18573;-49
2022/05/10 09:25:38;;;;;;;;;5.33;5.33;;;;;22.13;26.55;101632.02;110239;1262;23113;-48
2022/05/10 09:28:06;;;;;;;;;8.00;5.00;;;;;22.02;26.55;101627.23;110234;1262;19451;-49
2022/05/10 09:30:33;;;;;;;;;5.50;5.00;;;;;21.87;26.41;101629.31;110277;1262;18550;-49
2022/05/10 09:35:45;;;;;;;;;6.00;6.00;;;;;21.81;26.75;101617.40;110237;1264;21996;-48
2022/05/10 09:38:12;;;;;;;;;5.50;5.50;;;;;21.81;26.88;101613.38;110348;1261;18911;-50
2022/05/10 09:40:40;;;;;;;;;4.67;4.67;;;;;21.99;27.04;101607.72;110300;1262;18752;-49
2022/05/10 09:43:07;;;;;;;;;6.67;5.33;;;;;22.21;26.98;101607.18;110256;1262;19603;-52
2022/05/10 09:45:36;;;;;;;;;5.00;5.00;;;;;22.31;26.56;101598.45;110285;1264;19515;-50
2022/05/10 09:48:03;;;;;;;;;5.00;5.00;;;;;22.28;26.40;101594.73;110238;1262;18749;-48
2022/05/10 09:50:30;;;;;;;;;5.00;5.00;;;;;22.24;26.28;101593.20;110288;1264;22213;-50
2022/05/10 09:52:57;;;;;;;;;4.67;4.67;;;;;22.21;26.47;101584.66;110236;1262;18599;-49
2022/05/10 09:55:25;;;;;;;;;5.00;5.00;;;;;22.31;26.64;101583.80;110235;1263;18744;-50
2022/05/10 09:57:52;;;;;;;;;9.00;7.00;;;;;22.17;26.15;101581.78;110194;1262;22671;-48
2022/05/10 10:00:19;;;;;;;;;6.00;6.00;;;;;22.01;26.31;101585.04;110264;1263;18477;-50
2022/05/10 10:02:47;;;;;;;;;9.67;8.00;;;;;22.11;26.49;101587.69;110212;1262;20435;-49
2022/05/10 10:05:14;;;;;;;;;8.00;8.00;;;;;22.16;26.46;101578.08;110326;1261;20011;-49
2022/05/10 10:07:41;;;;;;;;;6.00;6.00;;;;;22.25;27.05;101577.61;110308;1262;19819;-49
2022/05/10 10:10:08;;;;;;;;;6.00;6.00;;;;;22.44;27.87;101573.28;110290;1262;19019;-49
2022/05/10 10:12:36;;;;;;;;;6.67;6.67;;;;;22.61;27.61;101569.78;110244;1264;19474;-49
2022/05/10 10:15:03;;;;;;;;;6.00;6.00;;;;;22.70;27.92;101576.53;110279;1262;18364;-49
2022/05/10 10:17:30;;;;;;;;;8.00;7.00;;;;;22.63;27.27;101575.02;110295;1264;21122;-50
2022/05/10 10:19:57;;;;;;;;;8.00;6.00;;;;;22.60;27.38;101572.15;110270;1262;19875;-49
2022/05/10 10:22:25;;;;;;;;;9.00;8.00;;;;;22.67;28.05;101559.34;110271;1262;22364;-49
2022/05/10 10:24:53;;;;;;;;;6.67;6.00;;;;;22.60;27.67;101557.52;110318;1261;19161;-48
2022/05/10 10:27:20;;;;;;;;;12.33;8.33;;;;;22.43;27.35;101550.27;110262;1262;19598;-48
2022/05/10 10:29:47;;;;;;;;;8.00;6.00;;;;;22.42;27.70;101549.19;110215;1261;18759;-50
2022/05/10 10:32:14;;;;;;;;;6.00;6.00;;;;;22.46;27.13;101544.93;110353;1262;18899;-51
2022/05/10 10:34:42;;;;;;;;;6.00;6.00;;;;;22.23;26.83;101541.27;110225;1262;19869;-50
2022/05/10 10:37:09;;;;;;;;;6.00;6.00;;;;;21.91;26.67;101534.06;110156;1264;18480;-48
2022/05/10 10:39:36;;;;;;;;;8.00;8.00;;;;;21.94;26.71;101532.12;110197;1264;19343;-49
2022/05/10 10:42:04;;;;;;;;;7.33;6.00;;;;;21.85;26.57;101534.71;110233;1263;22270;-49
2022/05/10 10:44:31;;;;;;;;;5.00;5.00;;;;;21.97;26.67;101528.17;110323;1262;22948;-49
2022/05/10 10:46:59;;;;;;;;;8.00;5.00;;;;;22.06;26.20;101521.36;110248;1262;18720;-51
2022/05/10 10:49:26;;;;;;;;;5.00;5.00;;;;;22.19;26.29;101517.66;110283;1263;19650;-47
2022/05/10 10:51:54;;;;;;;;;10.00;7.33;;;;;22.39;26.38;101519.02;110263;1264;18517;-48
2022/05/10 10:54:21;;;;;;;;;6.00;5.00;;;;;22.11;26.00;101513.35;110244;1262;21683;-48
2022/05/10 10:56:48;;;;;;;;;9.00;8.33;;;;;21.95;26.17;101512.44;110190;1264;19714;-50
2022/05/10 10:59:16;;;;;;;;;5.00;5.00;;;;;22.12;26.25;101518.70;110272;1264;18623;-50
2022/05/10 11:01:43;;;;;;;;;7.33;7.33;;;;;22.19;26.18;101519.33;110157;1263;19189;-49
2022/05/10 11:04:11;;;;;;;;;6.00;6.00;;;;;22.12;26.31;101512.14;110185;1262;19469;-48
2022/05/10 11:06:39;;;;;;;;;5.33;5.33;;;;;22.02;26.12;101509.02;110250;1261;18779;-53
2022/05/10 11:09:06;;;;;;;;;6.00;6.00;;;;;21.87;26.34;101505.11;110265;1264;18882;-52
2022/05/10 11:11:33;;;;;;;;;5.67;5.00;;;;;21.91;26.51;101508.40;110270;1261;19799;-50
2022/05/10 11:14:00;;;;;;;;;5.00;5.00;;;;;21.90;26.83;101495.46;110315;1262;22248;-48
2022/05/10 11:16:27;;;;;;;;;6.00;6.00;;;;;22.03;26.76;101495.98;110192;1262;18772;-46
2022/05/10 11:18:55;;;;;;;;;5.67;5.67;;;;;22.03;26.90;101500.19;110237;1262;19518;-47
2022/05/10 11:21:22;;;;;;;;;8.33;8.00;;;;;22.02;26.61;101491.23;110337;1261;22235;-49
2022/05/10 11:23:50;;;;;;;;;10.00;8.00;;;;;21.86;26.65;101479.00;110243;1261;18685;-49
2022/05/10 11:26:17;;;;;;;;;5.50;5.50;;;;;21.95;26.77;101476.21;110244;1262;19647;-49